Time;durP1;ratioP1;P1;durP2;ratioP2;P2;SDS_P1;SDS_P2;PMS_P1;PMS_P2;Temp;Humidity;BMP_temperature;BMP_pressure;BME280_temperature;BME280_humidity;BME280_pressure;Samples;Min_cycle;Max_cycle;Signal;HPM_P1;HPM_P2
2023/04/20 00:00:09;;;;;;;0.60;0.60;;;9.00;99.90;;;;;;5091888;28;20040;-82
2023/04/20 00:02:38;;;;;;;0.50;0.50;;;9.00;99.90;;;;;;5093182;28;20048;-82
2023/04/20 00:05:06;;;;;;;0.50;0.50;;;9.00;99.90;;;;;;5091932;28;20115;-82
2023/04/20 00:07:32;;;;;;;0.40;0.40;;;9.10;99.90;;;;;;5091469;28;20082;-82
2023/04/20 00:09:58;;;;;;;0.50;0.50;;;9.00;99.90;;;;;;5091753;28;20063;-82
2023/04/20 00:12:24;;;;;;;0.68;0.50;;;9.00;99.90;;;;;;5091788;28;20044;-82
2023/04/20 00:14:50;;;;;;;0.52;0.52;;;9.10;99.90;;;;;;5074902;28;20044;-82
2023/04/20 00:17:16;;;;;;;0.50;0.50;;;9.10;99.90;;;;;;5125773;28;20416;-82
2023/04/20 00:19:42;;;;;;;0.50;0.50;;;9.20;99.90;;;;;;5074486;28;20032;-82
2023/04/20 00:22:07;;;;;;;0.68;0.68;;;9.10;99.90;;;;;;5074602;28;20051;-82
2023/04/20 00:24:33;;;;;;;0.70;0.70;;;9.10;99.90;;;;;;5092925;28;20051;-82
2023/04/20 00:26:58;;;;;;;0.50;0.50;;;9.10;99.90;;;;;;5074493;28;20042;-82
2023/04/20 00:29:24;;;;;;;0.40;0.40;;;9.10;99.90;;;;;;5075556;28;20035;-82
2023/04/20 00:31:50;;;;;;;0.60;0.60;;;9.20;99.90;;;;;;5096672;28;20032;-82
2023/04/20 00:34:15;;;;;;;0.40;0.40;;;9.10;99.90;;;;;;5078162;28;20426;-82
2023/04/20 00:36:41;;;;;;;0.40;0.40;;;9.20;99.90;;;;;;5094987;28;20032;-82
2023/04/20 00:39:06;;;;;;;0.55;0.55;;;9.10;99.90;;;;;;5077822;28;20458;-82
2023/04/20 00:41:32;;;;;;;0.50;0.50;;;9.10;99.90;;;;;;5078236;28;20032;-82
2023/04/20 00:43:57;;;;;;;0.57;0.57;;;9.20;99.90;;;;;;5077936;28;20480;-82
2023/04/20 00:46:23;;;;;;;0.50;0.43;;;9.20;99.90;;;;;;5095077;28;20032;-82
2023/04/20 00:48:50;;;;;;;0.47;0.47;;;9.20;99.90;;;;;;5094738;28;20047;-82
2023/04/20 00:51:17;;;;;;;0.60;0.60;;;9.10;99.90;;;;;;5096292;28;20043;-82
2023/04/20 00:53:43;;;;;;;0.50;0.50;;;9.20;99.90;;;;;;5096203;28;20036;-82
2023/04/20 00:56:12;;;;;;;0.50;0.50;;;9.20;99.90;;;;;;5096346;28;20047;-82
2023/04/20 00:58:37;;;;;;;0.50;0.50;;;9.20;99.90;;;;;;5094521;28;20050;-82
2023/04/20 01:01:04;;;;;;;0.50;0.50;;;9.20;99.90;;;;;;5096233;28;20032;-82
2023/04/20 01:03:30;;;;;;;0.50;0.50;;;9.20;99.90;;;;;;5077655;28;20121;-82
2023/04/20 01:05:56;;;;;;;0.40;0.40;;;9.20;99.90;;;;;;5094422;28;20503;-82
2023/04/20 01:08:26;;;;;;;0.40;0.40;;;9.20;99.90;;;;;;5094465;28;20050;-82
2023/04/20 01:10:53;;;;;;;0.50;0.50;;;9.30;99.90;;;;;;5094688;28;20040;-82
2023/04/20 01:13:18;;;;;;;0.40;0.40;;;9.30;99.90;;;;;;5094533;28;20488;-83
2023/04/20 01:15:44;;;;;;;0.50;0.50;;;9.30;99.90;;;;;;5094195;28;20050;-82
2023/04/20 01:18:10;;;;;;;0.50;0.50;;;9.40;99.90;;;;;;5094237;28;20067;-82
2023/04/20 01:20:36;;;;;;;0.40;0.40;;;9.40;99.90;;;;;;5096220;28;20059;-82
2023/04/20 01:23:02;;;;;;;0.40;0.40;;;9.40;99.90;;;;;;5095682;28;20396;-82
2023/04/20 01:25:28;;;;;;;0.47;0.47;;;9.40;99.90;;;;;;5077126;28;20066;-82
2023/04/20 01:27:53;;;;;;;0.40;0.40;;;9.40;99.90;;;;;;5093974;28;20377;-82
2023/04/20 01:30:19;;;;;;;0.90;0.50;;;9.50;99.90;;;;;;5077104;28;20142;-82
2023/04/20 01:32:45;;;;;;;0.50;0.50;;;9.50;99.90;;;;;;5094198;28;20082;-82
2023/04/20 01:35:10;;;;;;;0.50;0.50;;;9.50;99.90;;;;;;5076899;28;20043;-82
2023/04/20 01:37:37;;;;;;;0.50;0.50;;;9.40;99.90;;;;;;5093798;28;20040;-82
2023/04/20 01:40:05;;;;;;;0.73;0.40;;;9.50;99.90;;;;;;5093536;28;20055;-82
2023/04/20 01:42:31;;;;;;;0.50;0.50;;;9.50;99.90;;;;;;5095426;28;20047;-82
2023/04/20 01:44:57;;;;;;;0.50;0.50;;;9.40;99.90;;;;;;5077113;28;20396;-82
2023/04/20 01:47:22;;;;;;;0.60;0.60;;;9.40;99.90;;;;;;5076744;28;20043;-82
2023/04/20 01:49:48;;;;;;;0.50;0.50;;;9.40;99.90;;;;;;5077606;28;20040;-83
2023/04/20 01:52:14;;;;;;;0.50;0.50;;;9.40;99.90;;;;;;5093649;28;20048;-82
2023/04/20 01:54:39;;;;;;;0.55;0.55;;;9.50;99.90;;;;;;5076903;28;20047;-82
2023/04/20 01:57:05;;;;;;;0.50;0.50;;;9.50;99.90;;;;;;5076404;28;20400;-82
2023/04/20 01:59:31;;;;;;;0.50;0.50;;;9.50;99.90;;;;;;5094929;28;20047;-82
2023/04/20 02:01:56;;;;;;;0.47;0.47;;;9.50;99.90;;;;;;5094551;28;20064;-82
2023/04/20 02:04:22;;;;;;;0.73;0.50;;;9.40;99.90;;;;;;5093231;28;20036;-82
2023/04/20 02:06:48;;;;;;;0.50;0.50;;;9.30;99.90;;;;;;5093613;28;20115;-82
2023/04/20 02:09:14;;;;;;;0.50;0.50;;;9.30;99.90;;;;;;5076645;28;20545;-82
2023/04/20 02:11:40;;;;;;;0.50;0.50;;;9.40;99.90;;;;;;5093461;28;20036;-82
2023/04/20 02:14:05;;;;;;;0.60;0.60;;;9.30;99.90;;;;;;5076252;28;20047;-82
2023/04/20 02:16:31;;;;;;;0.45;0.45;;;9.40;99.90;;;;;;5076411;28;20055;-82
2023/04/20 02:18:56;;;;;;;0.50;0.50;;;9.30;99.90;;;;;;5093406;28;20491;-82
2023/04/20 02:21:22;;;;;;;0.50;0.50;;;9.30;99.90;;;;;;5127304;27;20048;-82
2023/04/20 02:23:48;;;;;;;0.43;0.43;;;9.40;99.90;;;;;;5076067;28;20036;-82
2023/04/20 02:26:15;;;;;;;0.47;0.47;;;9.30;99.90;;;;;;5127155;27;20036;-82
2023/04/20 02:28:41;;;;;;;0.50;0.50;;;9.30;99.90;;;;;;5092979;28;20050;-82
2023/04/20 02:31:07;;;;;;;0.50;0.50;;;9.30;99.90;;;;;;5092905;28;20404;-82
2023/04/20 02:33:33;;;;;;;0.77;0.60;;;9.20;99.90;;;;;;5093146;28;20044;-82
2023/04/20 02:35:58;;;;;;;0.45;0.40;;;9.20;99.90;;;;;;5092701;28;20549;-82
2023/04/20 02:38:24;;;;;;;0.80;0.50;;;9.20;99.90;;;;;;5075486;28;20079;-82
2023/04/20 02:40:49;;;;;;;0.60;0.57;;;9.10;99.90;;;;;;5075743;28;20044;-82
2023/04/20 02:43:15;;;;;;;0.68;0.60;;;9.00;99.90;;;;;;5092900;28;20036;-82
2023/04/20 02:45:41;;;;;;;0.40;0.40;;;9.00;99.90;;;;;;5092496;28;20047;-82
2023/04/20 02:48:06;;;;;;;0.52;0.52;;;8.90;99.90;;;;;;5092839;28;20039;-82
2023/04/20 02:50:32;;;;;;;0.50;0.50;;;8.90;99.90;;;;;;5092726;28;20039;-82
2023/04/20 02:52:58;;;;;;;0.50;0.50;;;8.90;99.90;;;;;;5091807;28;20120;-82
2023/04/20 02:55:23;;;;;;;0.65;0.65;;;8.90;99.90;;;;;;5092718;28;20039;-82
2023/04/20 02:57:49;;;;;;;0.50;0.50;;;8.90;99.90;;;;;;5093544;28;20043;-82
2023/04/20 03:00:15;;;;;;;0.57;0.57;;;8.90;99.90;;;;;;5126512;27;20036;-82
2023/04/20 03:02:40;;;;;;;0.50;0.50;;;8.90;99.90;;;;;;5092379;28;20396;-82
2023/04/20 03:05:06;;;;;;;0.50;0.50;;;8.90;99.90;;;;;;5092672;28;20044;-82
2023/04/20 03:07:32;;;;;;;0.50;0.50;;;8.90;99.90;;;;;;5092604;28;20048;-82
2023/04/20 03:09:58;;;;;;;0.50;0.50;;;8.90;99.90;;;;;;5094186;28;20115;-82
2023/04/20 03:12:25;;;;;;;0.55;0.55;;;9.00;99.90;;;;;;5075310;28;20425;-82
2023/04/20 03:14:50;;;;;;;0.65;0.60;;;8.90;99.90;;;;;;5075447;28;20040;-82
2023/04/20 03:17:16;;;;;;;0.60;0.60;;;8.90;99.90;;;;;;5091840;28;20040;-82
2023/04/20 03:19:42;;;;;;;0.47;0.47;;;9.00;99.90;;;;;;5075311;28;20050;-82
2023/04/20 03:22:07;;;;;;;0.52;0.52;;;9.00;99.90;;;;;;5093385;28;20107;-82
2023/04/20 03:24:33;;;;;;;0.68;0.50;;;9.00;99.90;;;;;;5075066;28;20492;-82
2023/04/20 03:26:58;;;;;;;1.15;0.47;;;9.00;99.90;;;;;;5091884;28;20047;-82
2023/04/20 03:29:24;;;;;;;0.50;0.50;;;9.00;99.90;;;;;;5093357;28;20040;-82
2023/04/20 03:31:50;;;;;;;0.40;0.40;;;9.00;99.90;;;;;;5091794;28;20070;-82
2023/04/20 03:34:15;;;;;;;0.50;0.50;;;8.90;99.90;;;;;;5092775;28;20036;-82
2023/04/20 03:36:41;;;;;;;0.50;0.50;;;9.00;99.90;;;;;;5091934;28;20463;-82
2023/04/20 03:39:07;;;;;;;0.50;0.50;;;9.00;99.90;;;;;;5074590;28;20139;-82
2023/04/20 03:41:33;;;;;;;0.60;0.60;;;9.00;99.90;;;;;;5093336;28;20040;-82
2023/04/20 03:43:58;;;;;;;0.50;0.50;;;9.00;99.90;;;;;;5093299;28;20044;-82
2023/04/20 03:46:24;;;;;;;0.65;0.50;;;9.00;99.90;;;;;;5091669;28;20040;-82
2023/04/20 03:48:50;;;;;;;0.60;0.60;;;9.00;99.90;;;;;;5091923;28;20384;-82
2023/04/20 03:51:15;;;;;;;0.50;0.50;;;8.90;99.90;;;;;;5093836;28;20037;-82
2023/04/20 03:53:41;;;;;;;0.50;0.47;;;8.90;99.90;;;;;;5074744;28;20480;-82
2023/04/20 03:56:06;;;;;;;0.50;0.50;;;8.90;99.90;;;;;;5074788;28;20040;-82
2023/04/20 03:58:32;;;;;;;0.50;0.50;;;8.90;99.90;;;;;;5091670;28;20397;-82
2023/04/20 04:01:06;;;;;;;0.40;0.40;;;8.90;99.90;;;;;;5091574;28;20082;-82
2023/04/20 04:03:34;;;;;;;0.60;0.60;;;8.90;99.90;;;;;;5091926;28;20367;-82
2023/04/20 04:05:59;;;;;;;0.50;0.50;;;8.90;99.90;;;;;;5096699;28;20046;-82
2023/04/20 04:08:25;;;;;;;0.60;0.60;;;8.80;99.90;;;;;;5095852;28;20093;-81
2023/04/20 04:10:51;;;;;;;0.60;0.60;;;8.70;99.90;;;;;;5129643;27;20044;-81
2023/04/20 04:13:16;;;;;;;0.60;0.60;;;8.70;99.90;;;;;;5095819;28;20468;-81
2023/04/20 04:15:42;;;;;;;0.40;0.40;;;8.60;99.90;;;;;;5096938;28;20090;-81
2023/04/20 04:18:07;;;;;;;0.60;0.60;;;8.60;99.90;;;;;;5095175;28;20067;-82
2023/04/20 04:20:33;;;;;;;0.40;0.40;;;8.60;99.90;;;;;;5129313;27;20040;-82
2023/04/20 04:22:59;;;;;;;0.88;0.70;;;8.70;99.90;;;;;;5095267;28;20123;-82
2023/04/20 04:25:24;;;;;;;0.50;0.50;;;8.60;99.90;;;;;;5095606;28;20051;-82
2023/04/20 04:27:50;;;;;;;0.70;0.70;;;8.50;99.90;;;;;;5095291;28;20039;-81
2023/04/20 04:30:16;;;;;;;0.60;0.60;;;8.50;99.90;;;;;;5129282;27;20047;-82
2023/04/20 04:32:43;;;;;;;0.50;0.50;;;8.40;99.90;;;;;;5078462;28;20039;-82
2023/04/20 04:35:09;;;;;;;0.70;0.70;;;8.30;99.90;;;;;;5095431;28;20153;-82
2023/04/20 04:37:35;;;;;;;1.13;0.60;;;8.30;99.90;;;;;;5078303;28;20408;-82
2023/04/20 04:40:01;;;;;;;0.55;0.55;;;8.30;99.90;;;;;;5077971;28;20544;-82
2023/04/20 04:42:27;;;;;;;0.50;0.50;;;8.20;99.90;;;;;;5096604;28;20106;-81
2023/04/20 04:44:55;;;;;;;0.60;0.60;;;8.20;99.90;;;;;;5078026;28;20540;-82
2023/04/20 04:47:21;;;;;;;0.65;0.65;;;8.20;99.90;;;;;;5095216;28;20111;-82
2023/04/20 04:49:47;;;;;;;0.65;0.57;;;8.20;99.90;;;;;;5078382;28;20036;-82
2023/04/20 04:52:14;;;;;;;0.60;0.60;;;8.20;99.90;;;;;;5094910;28;20093;-82
2023/04/20 04:54:39;;;;;;;0.60;0.60;;;8.20;99.90;;;;;;5096358;28;20047;-82
2023/04/20 04:57:05;;;;;;;0.60;0.60;;;8.10;99.90;;;;;;5094692;28;20040;-82
2023/04/20 04:59:31;;;;;;;0.60;0.60;;;8.10;99.90;;;;;;5096045;28;20043;-82
2023/04/20 05:01:56;;;;;;;0.63;0.50;;;8.20;99.90;;;;;;5096173;28;20038;-81
2023/04/20 05:04:22;;;;;;;0.50;0.50;;;8.10;99.90;;;;;;5078244;28;20387;-81
2023/04/20 05:06:48;;;;;;;0.50;0.50;;;8.20;99.90;;;;;;5095826;28;20097;-81
2023/04/20 05:09:13;;;;;;;0.55;0.55;;;8.10;99.90;;;;;;5095816;28;20050;-82
2023/04/20 05:11:39;;;;;;;1.08;0.50;;;8.10;99.90;;;;;;5094369;28;20047;-81
2023/04/20 05:14:04;;;;;;;1.05;0.60;;;8.10;99.90;;;;;;5094532;28;20040;-81
2023/04/20 05:16:30;;;;;;;0.50;0.50;;;8.10;99.90;;;;;;5093873;28;20553;-81
2023/04/20 05:18:56;;;;;;;0.40;0.40;;;8.10;99.90;;;;;;5094071;28;20036;-81
2023/04/20 05:21:21;;;;;;;0.60;0.60;;;8.10;99.90;;;;;;5095682;28;20172;-82
2023/04/20 05:23:47;;;;;;;0.52;0.52;;;8.10;99.90;;;;;;5095624;28;20421;-81
2023/04/20 05:26:13;;;;;;;0.50;0.50;;;8.10;99.90;;;;;;5094445;28;20100;-81
2023/04/20 05:28:38;;;;;;;0.50;0.50;;;8.10;99.90;;;;;;5077225;28;20036;-81
2023/04/20 05:31:05;;;;;;;0.50;0.50;;;8.10;99.90;;;;;;5093979;28;20055;-81
2023/04/20 05:33:30;;;;;;;0.57;0.50;;;8.10;99.90;;;;;;5094005;28;20162;-81
2023/04/20 05:35:57;;;;;;;0.43;0.43;;;8.10;99.90;;;;;;5095520;28;20384;-81
2023/04/20 05:38:23;;;;;;;0.50;0.50;;;8.10;99.90;;;;;;5093524;28;20048;-81
2023/04/20 05:40:49;;;;;;;0.50;0.50;;;8.10;99.90;;;;;;5077091;28;20048;-81
2023/04/20 05:43:17;;;;;;;0.50;0.50;;;8.10;99.90;;;;;;5093761;28;20047;-81
2023/04/20 05:45:43;;;;;;;0.50;0.50;;;8.10;99.90;;;;;;5093963;28;20040;-81
2023/04/20 05:48:09;;;;;;;0.50;0.50;;;8.00;99.90;;;;;;5093665;28;20028;-82
2023/04/20 05:50:35;;;;;;;0.50;0.50;;;8.10;99.90;;;;;;5095231;28;20483;-81
2023/04/20 05:53:00;;;;;;;0.75;0.50;;;8.10;99.90;;;;;;5095258;28;20072;-81
2023/04/20 05:55:26;;;;;;;0.70;0.70;;;8.10;99.90;;;;;;5095134;28;20039;-81
2023/04/20 05:57:51;;;;;;;0.98;0.50;;;8.10;99.90;;;;;;5094575;28;20396;-81
2023/04/20 06:00:18;;;;;;;0.50;0.50;;;8.10;99.90;;;;;;5093509;28;20036;-82
2023/04/20 06:02:44;;;;;;;0.50;0.50;;;8.10;99.90;;;;;;5094869;28;20440;-73
2023/04/20 06:05:10;;;;;;;0.50;0.50;;;8.00;99.90;;;;;;5094657;28;20044;-79
2023/04/20 06:07:36;;;;;;;0.55;0.55;;;8.00;99.90;;;;;;5093555;28;20393;-81
2023/04/20 06:10:03;;;;;;;0.60;0.60;;;8.00;99.90;;;;;;5093541;28;20131;-79
2023/04/20 06:12:29;;;;;;;0.55;0.55;;;7.90;99.90;;;;;;5094421;28;20547;-76
2023/04/20 06:14:55;;;;;;;0.55;0.55;;;7.90;99.90;;;;;;5094747;28;20121;-77
2023/04/20 06:17:21;;;;;;;0.55;0.55;;;7.80;99.90;;;;;;5093071;28;20165;-76
2023/04/20 06:19:46;;;;;;;0.40;0.40;;;7.80;99.90;;;;;;5094717;28;20111;-76
2023/04/20 06:22:13;;;;;;;0.60;0.60;;;7.70;99.90;;;;;;5093420;28;20451;-77
2023/04/20 06:24:41;;;;;;;0.95;0.57;;;7.60;99.90;;;;;;5093142;28;20318;-76
2023/04/20 06:27:07;;;;;;;0.50;0.50;;;7.40;99.90;;;;;;5093309;28;20432;-76
2023/04/20 06:29:32;;;;;;;0.60;0.60;;;7.30;99.90;;;;;;5093376;28;20048;-76
2023/04/20 06:31:58;;;;;;;0.80;0.80;;;7.20;99.90;;;;;;5092958;28;20040;-76
2023/04/20 06:34:24;;;;;;;0.63;0.63;;;7.10;99.90;;;;;;5094468;28;20097;-75
2023/04/20 06:36:49;;;;;;;0.65;0.65;;;7.10;99.90;;;;;;5076054;28;20086;-76
2023/04/20 06:39:16;;;;;;;0.70;0.70;;;7.10;99.90;;;;;;5092848;28;20052;-76
2023/04/20 06:41:42;;;;;;;0.60;0.60;;;7.00;99.90;;;;;;5093039;28;20038;-74
2023/04/20 06:44:08;;;;;;;0.50;0.50;;;7.00;99.90;;;;;;5093305;28;20072;-75
2023/04/20 06:46:34;;;;;;;0.77;0.77;;;7.00;99.90;;;;;;5092891;28;20516;-75
2023/04/20 06:49:00;;;;;;;0.50;0.50;;;7.00;99.90;;;;;;5076045;28;20127;-75
2023/04/20 06:51:27;;;;;;;0.55;0.55;;;7.00;99.90;;;;;;5092795;28;20044;-75
2023/04/20 06:53:53;;;;;;;0.50;0.50;;;7.00;99.90;;;;;;5093138;28;20485;-75
2023/04/20 06:56:19;;;;;;;0.70;0.70;;;7.00;99.90;;;;;;5093037;28;20055;-75
2023/04/20 06:58:45;;;;;;;0.60;0.60;;;7.00;99.90;;;;;;5075771;28;20036;-75
2023/04/20 07:01:10;;;;;;;0.60;0.60;;;7.10;99.90;;;;;;5092996;28;20078;-76
2023/04/20 07:03:36;;;;;;;0.75;0.75;;;7.10;99.90;;;;;;5094223;28;20468;-75
2023/04/20 07:06:02;;;;;;;0.70;0.70;;;7.20;99.90;;;;;;5075685;28;20545;-80
2023/04/20 07:08:28;;;;;;;0.68;0.68;;;7.20;99.90;;;;;;5092752;28;20078;-74
2023/04/20 07:10:54;;;;;;;0.70;0.70;;;7.20;99.90;;;;;;5092888;28;20177;-78
2023/04/20 07:13:19;;;;;;;0.85;0.80;;;7.20;99.90;;;;;;5094122;28;20396;-72
2023/04/20 07:15:45;;;;;;;0.95;0.80;;;7.30;99.90;;;;;;5093998;28;20036;-76
2023/04/20 07:18:11;;;;;;;0.75;0.75;;;7.20;99.90;;;;;;5092355;28;20566;-75
2023/04/20 07:20:36;;;;;;;0.70;0.70;;;7.20;99.90;;;;;;5092440;28;20044;-75
2023/04/20 07:23:02;;;;;;;0.70;0.70;;;7.30;99.90;;;;;;5092588;28;20036;-75
2023/04/20 07:25:30;;;;;;;0.68;0.68;;;7.30;99.90;;;;;;5092331;28;20040;-75
2023/04/20 07:27:56;;;;;;;0.70;0.70;;;7.40;99.90;;;;;;5093492;28;20484;-75
2023/04/20 07:30:21;;;;;;;0.70;0.70;;;7.40;99.90;;;;;;5092266;28;20051;-79
2023/04/20 07:32:48;;;;;;;0.80;0.70;;;7.50;99.90;;;;;;5092552;28;20040;-77
2023/04/20 07:35:13;;;;;;;0.80;0.80;;;7.50;99.90;;;;;;5093679;28;20135;-73
2023/04/20 07:37:40;;;;;;;0.80;0.80;;;7.60;99.90;;;;;;5092321;28;20089;-75
2023/04/20 07:40:06;;;;;;;0.65;0.65;;;7.60;99.90;;;;;;5075089;28;20055;-74
2023/04/20 07:42:33;;;;;;;0.77;0.77;;;7.70;99.90;;;;;;5092006;28;20055;-73
2023/04/20 07:44:59;;;;;;;0.95;0.70;;;7.80;99.90;;;;;;5092059;28;20475;-75
2023/04/20 07:47:24;;;;;;;0.70;0.70;;;7.90;99.90;;;;;;5126076;28;20040;-75
2023/04/20 07:49:50;;;;;;;0.70;0.70;;;8.00;99.90;;;;;;5092290;28;20361;-71
2023/04/20 07:52:17;;;;;;;0.60;0.60;;;8.00;99.90;;;;;;5092340;28;20410;-78
2023/04/20 07:54:43;;;;;;;0.65;0.65;;;8.00;99.90;;;;;;5093490;28;20089;-78
2023/04/20 07:57:10;;;;;;;0.70;0.70;;;7.90;99.90;;;;;;5093619;28;20036;-77
2023/04/20 07:59:35;;;;;;;0.75;0.75;;;7.90;99.90;;;;;;5093217;28;20036;-77
2023/04/20 08:02:02;;;;;;;0.80;0.80;;;8.00;99.90;;;;;;5093596;28;20377;-77
2023/04/20 08:04:28;;;;;;;0.80;0.80;;;8.00;99.90;;;;;;5093469;28;20036;-77
2023/04/20 08:06:54;;;;;;;0.80;0.80;;;8.00;99.90;;;;;;5075357;28;20503;-77
2023/04/20 08:09:20;;;;;;;0.80;0.80;;;8.10;99.90;;;;;;5091900;28;20051;-77
2023/04/20 08:11:46;;;;;;;0.77;0.77;;;8.10;99.90;;;;;;5075014;28;20036;-77
2023/04/20 08:14:12;;;;;;;0.95;0.88;;;8.30;99.90;;;;;;5074944;28;20075;-77
2023/04/20 08:16:38;;;;;;;0.80;0.80;;;8.20;99.90;;;;;;5091865;28;20072;-77
2023/04/20 08:19:08;;;;;;;0.80;0.80;;;8.30;99.90;;;;;;5092093;28;20070;-77
2023/04/20 08:21:43;;;;;;;0.70;0.70;;;8.40;99.90;;;;;;5075040;28;20040;-77
2023/04/20 08:24:09;;;;;;;0.82;0.82;;;8.50;99.90;;;;;;5093343;28;20043;-77
2023/04/20 08:26:35;;;;;;;0.88;0.80;;;8.50;99.90;;;;;;5092025;28;20040;-77
2023/04/20 08:29:01;;;;;;;0.80;0.80;;;8.50;99.90;;;;;;5074866;28;20036;-77
2023/04/20 08:31:27;;;;;;;1.17;0.90;;;8.50;99.90;;;;;;5093229;28;20040;-77
2023/04/20 08:33:53;;;;;;;0.80;0.80;;;8.50;99.90;;;;;;5091795;28;20043;-77
2023/04/20 08:36:19;;;;;;;0.70;0.70;;;8.60;99.90;;;;;;5093247;28;20391;-77
2023/04/20 08:38:45;;;;;;;0.75;0.75;;;8.50;99.90;;;;;;5125517;28;20501;-78
2023/04/20 08:41:12;;;;;;;0.70;0.70;;;8.50;99.90;;;;;;5093308;28;20043;-77
2023/04/20 08:43:38;;;;;;;0.63;0.63;;;8.50;99.90;;;;;;5091701;28;20044;-77
2023/04/20 08:46:04;;;;;;;0.70;0.70;;;8.50;99.90;;;;;;5091572;28;20040;-77
2023/04/20 08:48:35;;;;;;;0.80;0.80;;;8.50;99.90;;;;;;5074695;28;20377;-77
2023/04/20 08:51:02;;;;;;;0.70;0.70;;;8.50;99.90;;;;;;5094812;28;20068;-77
2023/04/20 08:53:29;;;;;;;0.70;0.70;;;8.50;99.90;;;;;;5095129;28;20047;-77
2023/04/20 08:55:56;;;;;;;0.80;0.80;;;8.50;99.90;;;;;;5095418;28;20120;-77
2023/04/20 08:58:24;;;;;;;1.23;0.70;;;8.50;99.90;;;;;;5078054;28;20048;-77
2023/04/20 09:00:49;;;;;;;0.80;0.80;;;8.50;99.90;;;;;;5094961;28;20036;-77
2023/04/20 09:03:15;;;;;;;0.70;0.70;;;8.50;99.90;;;;;;5078150;28;20051;-77
2023/04/20 09:05:43;;;;;;;0.73;0.73;;;8.50;99.90;;;;;;5078130;28;20069;-76
2023/04/20 09:08:09;;;;;;;0.65;0.65;;;8.40;99.90;;;;;;5095925;28;20436;-77
2023/04/20 09:10:40;;;;;;;0.82;0.80;;;8.50;99.90;;;;;;5078190;28;20133;-77
2023/04/20 09:13:06;;;;;;;0.60;0.60;;;8.40;99.90;;;;;;5095156;28;20047;-77
2023/04/20 09:15:32;;;;;;;0.60;0.60;;;8.40;99.90;;;;;;5096384;28;20044;-77
2023/04/20 09:17:58;;;;;;;0.70;0.70;;;8.40;99.90;;;;;;5094874;28;20039;-77
2023/04/20 09:20:41;;;;;;;0.88;0.88;;;8.40;99.90;;;;;;5094759;28;20426;-77
2023/04/20 09:23:15;;;;;;;1.00;0.85;;;8.50;99.90;;;;;;5096247;28;20107;-77
2023/04/20 09:25:45;;;;;;;0.80;0.80;;;8.50;99.90;;;;;;5094658;28;20059;-77
2023/04/20 09:28:12;;;;;;;1.08;1.00;;;8.50;99.90;;;;;;5094651;28;20038;-77
2023/04/20 09:30:44;;;;;;;0.80;0.80;;;8.60;99.90;;;;;;5077561;28;20046;-77
2023/04/20 09:33:11;;;;;;;0.70;0.70;;;8.70;99.90;;;;;;5094713;28;20040;-77
2023/04/20 09:35:44;;;;;;;0.88;0.88;;;8.70;99.90;;;;;;5094625;28;20200;-77
2023/04/20 09:38:15;;;;;;;1.02;0.80;;;8.70;99.90;;;;;;5093959;28;20039;-76
2023/04/20 09:40:40;;;;;;;0.70;0.70;;;8.70;99.90;;;;;;5094265;28;20048;-76
2023/04/20 09:43:16;;;;;;;0.80;0.80;;;8.70;99.90;;;;;;5077948;28;20036;-77
2023/04/20 09:45:42;;;;;;;0.70;0.70;;;8.70;99.90;;;;;;5077977;28;20032;-77
2023/04/20 09:48:09;;;;;;;0.90;0.90;;;8.80;99.90;;;;;;5094021;28;20100;-77
2023/04/20 09:50:39;;;;;;;0.68;0.68;;;8.90;99.90;;;;;;5076745;28;20037;-77
2023/04/20 09:53:05;;;;;;;0.80;0.80;;;9.00;99.90;;;;;;5095742;28;20093;-77
2023/04/20 09:55:31;;;;;;;0.60;0.60;;;9.10;99.90;;;;;;5094851;28;20404;-76
2023/04/20 09:58:00;;;;;;;0.70;0.70;;;9.10;99.90;;;;;;5076644;28;20044;-76
2023/04/20 10:00:25;;;;;;;0.70;0.70;;;9.20;99.90;;;;;;5093811;28;20497;-76
2023/04/20 10:02:51;;;;;;;0.75;0.75;;;9.20;99.90;;;;;;5076509;28;20086;-76
2023/04/20 10:05:17;;;;;;;0.77;0.77;;;9.20;99.90;;;;;;5093439;28;20036;-77
2023/04/20 10:07:43;;;;;;;0.70;0.70;;;9.10;99.90;;;;;;5095006;28;20040;-76
2023/04/20 10:10:12;;;;;;;0.80;0.70;;;9.10;99.90;;;;;;5127528;27;20517;-77
2023/04/20 10:12:50;;;;;;;0.80;0.80;;;9.10;99.90;;;;;;5076748;28;20097;-77
2023/04/20 10:15:17;;;;;;;0.60;0.60;;;9.00;99.90;;;;;;5076468;28;20039;-77
2023/04/20 10:17:43;;;;;;;0.75;0.75;;;9.00;99.90;;;;;;5093404;28;20071;-77
2023/04/20 10:20:26;;;;;;;0.60;0.60;;;9.10;99.90;;;;;;5093118;28;20089;-77
2023/04/20 10:22:53;;;;;;;0.60;0.60;;;9.20;99.90;;;;;;5076539;28;20407;-77
2023/04/20 10:25:23;;;;;;;0.70;0.70;;;9.30;99.90;;;;;;5093359;28;20434;-77
2023/04/20 10:27:54;;;;;;;0.73;0.73;;;9.40;99.90;;;;;;5094643;28;20047;-77
2023/04/20 10:30:21;;;;;;;0.70;0.70;;;9.40;99.90;;;;;;5093255;28;20455;-77
2023/04/20 10:32:46;;;;;;;0.70;0.70;;;9.50;99.90;;;;;;5075936;28;20484;-77
2023/04/20 10:35:14;;;;;;;0.60;0.60;;;9.50;99.90;;;;;;5126841;27;20055;-77
2023/04/20 10:37:49;;;;;;;0.85;0.70;;;9.60;99.90;;;;;;5094366;28;20048;-77
2023/04/20 10:40:14;;;;;;;0.75;0.75;;;9.70;99.90;;;;;;5075747;28;20048;-77
2023/04/20 10:42:41;;;;;;;0.70;0.70;;;9.70;99.90;;;;;;5093002;28;20545;-76
2023/04/20 10:45:08;;;;;;;0.70;0.70;;;9.80;99.90;;;;;;5092745;28;20100;-76
2023/04/20 10:47:36;;;;;;;0.80;0.80;;;9.90;99.90;;;;;;5092755;28;20047;-77
2023/04/20 10:50:14;;;;;;;0.80;0.80;;;10.00;99.90;;;;;;5075958;28;20396;-77
2023/04/20 10:52:42;;;;;;;0.77;0.77;;;10.10;99.90;;;;;;5094227;28;20040;-77
2023/04/20 10:55:25;;;;;;;0.80;0.80;;;10.20;99.90;;;;;;5075760;28;20039;-77
2023/04/20 10:57:51;;;;;;;0.80;0.80;;;10.30;99.90;;;;;;5092548;28;20093;-77
2023/04/20 11:00:19;;;;;;;0.90;0.90;;;10.30;99.90;;;;;;5093024;28;20028;-76
2023/04/20 11:02:50;;;;;;;0.80;0.80;;;10.10;99.90;;;;;;5075634;28;20080;-77
2023/04/20 11:05:17;;;;;;;0.95;0.95;;;10.10;99.90;;;;;;5092664;28;20400;-77
2023/04/20 11:08:02;;;;;;;0.80;0.80;;;10.30;99.90;;;;;;5094427;28;20051;-76
2023/04/20 11:10:38;;;;;;;0.90;0.90;;;10.20;99.90;;;;;;5075704;28;20044;-77
2023/04/20 11:13:04;;;;;;;0.80;0.80;;;10.30;99.90;;;;;;5092207;28;20032;-77
2023/04/20 11:15:39;;;;;;;0.80;0.80;;;10.50;99.90;;;;;;5092577;28;20429;-77
2023/04/20 11:18:06;;;;;;;0.90;0.90;;;10.70;99.90;;;;;;5126126;27;20128;-76
2023/04/20 11:20:32;;;;;;;0.70;0.70;;;10.90;99.90;;;;;;5092404;28;20059;-77
2023/04/20 11:22:58;;;;;;;0.75;0.75;;;11.20;99.90;;;;;;5092118;28;20040;-77
2023/04/20 11:25:24;;;;;;;0.70;0.70;;;11.40;99.90;;;;;;5092095;28;20487;-77
2023/04/20 11:27:50;;;;;;;0.70;0.70;;;11.50;99.90;;;;;;5092379;28;20042;-77
2023/04/20 11:30:15;;;;;;;0.80;0.80;;;11.60;99.90;;;;;;5093579;28;20040;-77
2023/04/20 11:32:41;;;;;;;0.70;0.70;;;11.70;99.90;;;;;;5092023;28;20068;-77
2023/04/20 11:35:09;;;;;;;0.80;0.80;;;11.70;99.90;;;;;;5092236;28;20089;-77
2023/04/20 11:37:46;;;;;;;0.70;0.70;;;11.80;99.90;;;;;;5093456;28;20179;-77
2023/04/20 11:40:13;;;;;;;0.70;0.70;;;11.90;99.90;;;;;;5074925;28;20060;-77
2023/04/20 11:42:39;;;;;;;0.70;0.70;;;12.10;99.90;;;;;;5092791;28;20093;-78
2023/04/20 11:45:05;;;;;;;0.70;0.70;;;12.10;99.90;;;;;;5093471;28;20036;-77
2023/04/20 11:47:31;;;;;;;0.68;0.68;;;12.20;99.90;;;;;;5092337;28;20040;-77
2023/04/20 11:49:56;;;;;;;0.80;0.80;;;12.30;99.90;;;;;;5093471;28;20434;-77
2023/04/20 11:52:22;;;;;;;0.98;0.73;;;12.50;99.90;;;;;;5091847;28;20040;-78
2023/04/20 11:54:48;;;;;;;0.60;0.60;;;12.70;99.90;;;;;;5091803;28;20044;-77
2023/04/20 11:57:14;;;;;;;0.70;0.70;;;12.80;99.90;;;;;;5093344;28;20036;-77
2023/04/20 11:59:41;;;;;;;0.70;0.70;;;12.80;99.90;;;;;;5091640;28;20063;-77
2023/04/20 12:02:07;;;;;;;0.70;0.70;;;12.80;99.90;;;;;;5093362;28;20040;-77
2023/04/20 12:04:33;;;;;;;0.70;0.70;;;12.80;99.90;;;;;;5093045;28;20040;-77
2023/04/20 12:07:00;;;;;;;0.77;0.77;;;12.60;99.90;;;;;;5074811;28;20123;-77
2023/04/20 12:09:27;;;;;;;0.90;0.90;;;12.50;99.90;;;;;;5093319;28;20044;-77
2023/04/20 12:11:52;;;;;;;0.60;0.60;;;12.60;99.90;;;;;;5093207;28;20150;-77
2023/04/20 12:14:18;;;;;;;0.70;0.70;;;12.50;99.90;;;;;;5091673;28;20127;-77
2023/04/20 12:16:46;;;;;;;0.70;0.70;;;12.50;99.90;;;;;;5093141;28;20066;-77
2023/04/20 12:19:12;;;;;;;0.75;0.75;;;12.40;99.90;;;;;;5091524;28;20127;-77
2023/04/20 12:21:38;;;;;;;0.60;0.60;;;12.40;99.90;;;;;;5092774;28;20066;-77
2023/04/20 12:24:04;;;;;;;0.65;0.65;;;12.50;99.90;;;;;;5074959;28;20040;-77
2023/04/20 12:26:29;;;;;;;0.60;0.60;;;12.70;99.90;;;;;;5077288;28;20123;-77
2023/04/20 12:28:56;;;;;;;0.70;0.70;;;12.80;99.90;;;;;;5095413;28;20040;-77
2023/04/20 12:31:23;;;;;;;0.60;0.60;;;12.90;99.90;;;;;;5095754;28;20109;-77
2023/04/20 12:33:49;;;;;;;0.70;0.70;;;13.00;99.90;;;;;;5097096;28;20115;-77
2023/04/20 12:36:14;;;;;;;0.70;0.70;;;13.00;99.90;;;;;;5078295;28;20067;-77
2023/04/20 12:38:40;;;;;;;0.70;0.70;;;12.90;99.90;;;;;;5096426;28;20047;-77
2023/04/20 12:41:06;;;;;;;0.70;0.70;;;12.70;99.90;;;;;;5095533;28;20475;-77
2023/04/20 12:43:31;;;;;;;0.70;0.70;;;12.80;99.90;;;;;;5095463;28;20642;-77
2023/04/20 12:45:57;;;;;;;0.60;0.60;;;12.80;99.90;;;;;;5096743;28;20417;-77
2023/04/20 12:48:23;;;;;;;0.75;0.75;;;13.00;99.90;;;;;;5095036;28;20044;-77
2023/04/20 12:50:49;;;;;;;0.77;0.77;;;13.30;99.90;;;;;;5096603;28;20384;-77